sensor_id;sensor_type;location;lat;lon;timestamp;P1;durP1;ratioP1;P2;durP2;ratioP2
17812;SDS011;9030;50.792;8.320;2023-05-16T00:00:36;43.53;;;39.57;;
17812;SDS011;9030;50.792;8.320;2023-05-16T00:03:03;43.90;;;39.73;;
17812;SDS011;9030;50.792;8.320;2023-05-16T00:05:30;38.67;;;35.17;;
17812;SDS011;9030;50.792;8.320;2023-05-16T00:07:58;42.43;;;38.37;;
17812;SDS011;9030;50.792;8.320;2023-05-16T00:10:25;39.13;;;35.35;;
17812;SDS011;9030;50.792;8.320;2023-05-16T00:12:51;41.47;;;37.87;;
17812;SDS011;9030;50.792;8.320;2023-05-16T00:15:18;42.65;;;38.65;;
17812;SDS011;9030;50.792;8.320;2023-05-16T00:17:47;41.07;;;37.17;;
17812;SDS011;9030;50.792;8.320;2023-05-16T00:20:14;37.35;;;33.78;;
17812;SDS011;9030;50.792;8.320;2023-05-16T00:22:41;39.30;;;35.60;;
17812;SDS011;9030;50.792;8.320;2023-05-16T00:25:09;35.47;;;31.93;;
17812;SDS011;9030;50.792;8.320;2023-05-16T00:27:36;33.97;;;30.57;;
17812;SDS011;9030;50.792;8.320;2023-05-16T00:30:03;34.17;;;30.67;;
17812;SDS011;9030;50.792;8.320;2023-05-16T00:32:30;37.63;;;34.13;;
17812;SDS011;9030;50.792;8.320;2023-05-16T00:34:57;36.27;;;32.90;;
17812;SDS011;9030;50.792;8.320;2023-05-16T00:37:24;38.40;;;34.53;;
17812;SDS011;9030;50.792;8.320;2023-05-16T00:39:50;39.43;;;35.53;;
17812;SDS011;9030;50.792;8.320;2023-05-16T00:42:19;40.37;;;36.50;;
17812;SDS011;9030;50.792;8.320;2023-05-16T00:44:46;41.27;;;37.37;;
17812;SDS011;9030;50.792;8.320;2023-05-16T00:47:13;37.43;;;33.90;;
17812;SDS011;9030;50.792;8.320;2023-05-16T00:49:40;37.47;;;34.00;;
17812;SDS011;9030;50.792;8.320;2023-05-16T00:52:07;35.07;;;31.77;;
17812;SDS011;9030;50.792;8.320;2023-05-16T00:54:34;35.93;;;32.53;;
17812;SDS011;9030;50.792;8.320;2023-05-16T00:57:00;35.13;;;31.60;;
17812;SDS011;9030;50.792;8.320;2023-05-16T00:59:29;34.27;;;30.83;;
17812;SDS011;9030;50.792;8.320;2023-05-16T01:01:56;36.60;;;33.10;;
17812;SDS011;9030;50.792;8.320;2023-05-16T01:04:23;39.67;;;36.00;;
17812;SDS011;9030;50.792;8.320;2023-05-16T01:06:50;42.53;;;38.73;;
17812;SDS011;9030;50.792;8.320;2023-05-16T01:09:17;34.65;;;31.45;;
17812;SDS011;9030;50.792;8.320;2023-05-16T01:11:46;35.33;;;32.17;;
17812;SDS011;9030;50.792;8.320;2023-05-16T01:14:18;37.87;;;34.43;;
17812;SDS011;9030;50.792;8.320;2023-05-16T01:16:58;41.47;;;37.53;;
17812;SDS011;9030;50.792;8.320;2023-05-16T01:19:31;41.80;;;38.00;;
17812;SDS011;9030;50.792;8.320;2023-05-16T01:22:19;41.63;;;37.65;;
17812;SDS011;9030;50.792;8.320;2023-05-16T01:24:57;36.43;;;32.70;;
17812;SDS011;9030;50.792;8.320;2023-05-16T01:27:31;40.97;;;37.10;;
17812;SDS011;9030;50.792;8.320;2023-05-16T01:29:58;41.40;;;37.53;;
17812;SDS011;9030;50.792;8.320;2023-05-16T01:32:25;41.63;;;37.73;;
17812;SDS011;9030;50.792;8.320;2023-05-16T01:34:51;39.78;;;36.17;;
17812;SDS011;9030;50.792;8.320;2023-05-16T01:37:20;36.83;;;33.50;;
17812;SDS011;9030;50.792;8.320;2023-05-16T01:39:55;38.25;;;34.67;;
17812;SDS011;9030;50.792;8.320;2023-05-16T01:42:26;37.40;;;34.03;;
17812;SDS011;9030;50.792;8.320;2023-05-16T01:44:59;37.08;;;33.65;;
17812;SDS011;9030;50.792;8.320;2023-05-16T01:47:31;32.55;;;29.40;;
17812;SDS011;9030;50.792;8.320;2023-05-16T01:50:03;26.88;;;24.25;;
17812;SDS011;9030;50.792;8.320;2023-05-16T01:52:34;30.47;;;27.67;;
17812;SDS011;9030;50.792;8.320;2023-05-16T01:55:05;27.03;;;24.33;;
17812;SDS011;9030;50.792;8.320;2023-05-16T01:57:36;25.30;;;22.77;;
17812;SDS011;9030;50.792;8.320;2023-05-16T02:00:07;24.63;;;22.15;;
17812;SDS011;9030;50.792;8.320;2023-05-16T02:02:34;29.10;;;25.17;;
17812;SDS011;9030;50.792;8.320;2023-05-16T02:05:01;26.33;;;23.87;;
17812;SDS011;9030;50.792;8.320;2023-05-16T02:07:28;31.65;;;28.85;;
17812;SDS011;9030;50.792;8.320;2023-05-16T02:09:54;29.45;;;26.70;;
17812;SDS011;9030;50.792;8.320;2023-05-16T02:12:21;32.38;;;29.48;;
17812;SDS011;9030;50.792;8.320;2023-05-16T02:14:48;34.77;;;31.47;;
17812;SDS011;9030;50.792;8.320;2023-05-16T02:17:16;33.65;;;30.45;;
17812;SDS011;9030;50.792;8.320;2023-05-16T02:19:43;35.13;;;31.92;;
17812;SDS011;9030;50.792;8.320;2023-05-16T02:22:09;37.97;;;34.57;;
17812;SDS011;9030;50.792;8.320;2023-05-16T02:24:36;37.27;;;33.87;;
17812;SDS011;9030;50.792;8.320;2023-05-16T02:27:03;35.90;;;32.87;;
17812;SDS011;9030;50.792;8.320;2023-05-16T02:29:30;43.40;;;39.27;;
17812;SDS011;9030;50.792;8.320;2023-05-16T02:31:58;46.30;;;42.27;;
17812;SDS011;9030;50.792;8.320;2023-05-16T02:34:26;46.27;;;41.87;;
17812;SDS011;9030;50.792;8.320;2023-05-16T02:36:52;44.53;;;40.38;;
17812;SDS011;9030;50.792;8.320;2023-05-16T02:39:19;49.50;;;45.13;;
17812;SDS011;9030;50.792;8.320;2023-05-16T02:41:46;45.70;;;41.70;;
17812;SDS011;9030;50.792;8.320;2023-05-16T02:44:13;44.50;;;40.30;;
17812;SDS011;9030;50.792;8.320;2023-05-16T02:46:40;40.20;;;36.50;;
17812;SDS011;9030;50.792;8.320;2023-05-16T02:49:06;38.70;;;35.20;;
17812;SDS011;9030;50.792;8.320;2023-05-16T02:51:34;36.70;;;33.17;;
17812;SDS011;9030;50.792;8.320;2023-05-16T02:54:01;35.53;;;32.23;;
17812;SDS011;9030;50.792;8.320;2023-05-16T02:56:28;34.10;;;30.90;;
17812;SDS011;9030;50.792;8.320;2023-05-16T02:58:55;19.97;;;17.50;;
17812;SDS011;9030;50.792;8.320;2023-05-16T03:01:21;15.07;;;10.83;;
17812;SDS011;9030;50.792;8.320;2023-05-16T03:03:48;12.93;;;8.20;;
17812;SDS011;9030;50.792;8.320;2023-05-16T03:06:15;14.03;;;7.30;;
17812;SDS011;9030;50.792;8.320;2023-05-16T03:08:43;12.53;;;9.20;;
17812;SDS011;9030;50.792;8.320;2023-05-16T03:11:10;11.50;;;6.80;;
17812;SDS011;9030;50.792;8.320;2023-05-16T03:13:37;8.23;;;4.93;;
17812;SDS011;9030;50.792;8.320;2023-05-16T03:16:04;3.97;;;2.13;;
17812;SDS011;9030;50.792;8.320;2023-05-16T03:18:31;6.83;;;3.53;;
17812;SDS011;9030;50.792;8.320;2023-05-16T03:20:58;3.87;;;2.00;;
17812;SDS011;9030;50.792;8.320;2023-05-16T03:23:26;7.03;;;2.80;;
17812;SDS011;9030;50.792;8.320;2023-05-16T03:25:54;3.57;;;2.13;;
17812;SDS011;9030;50.792;8.320;2023-05-16T03:28:20;3.40;;;1.83;;
17812;SDS011;9030;50.792;8.320;2023-05-16T03:30:47;3.40;;;1.93;;
17812;SDS011;9030;50.792;8.320;2023-05-16T03:33:14;2.30;;;1.40;;
17812;SDS011;9030;50.792;8.320;2023-05-16T03:35:41;2.33;;;1.40;;
17812;SDS011;9030;50.792;8.320;2023-05-16T03:38:08;2.93;;;1.40;;
17812;SDS011;9030;50.792;8.320;2023-05-16T03:40:35;1.63;;;0.90;;
17812;SDS011;9030;50.792;8.320;2023-05-16T03:43:04;1.87;;;1.20;;
17812;SDS011;9030;50.792;8.320;2023-05-16T03:45:30;1.47;;;0.90;;
17812;SDS011;9030;50.792;8.320;2023-05-16T03:47:57;0.90;;;0.60;;
17812;SDS011;9030;50.792;8.320;2023-05-16T03:50:24;2.70;;;1.63;;
17812;SDS011;9030;50.792;8.320;2023-05-16T03:52:51;2.20;;;1.40;;
17812;SDS011;9030;50.792;8.320;2023-05-16T03:55:17;1.43;;;0.93;;
17812;SDS011;9030;50.792;8.320;2023-05-16T03:57:44;2.03;;;1.13;;
17812;SDS011;9030;50.792;8.320;2023-05-16T04:00:13;2.40;;;1.43;;
17812;SDS011;9030;50.792;8.320;2023-05-16T04:02:41;1.27;;;0.90;;
17812;SDS011;9030;50.792;8.320;2023-05-16T04:05:08;0.87;;;0.70;;
17812;SDS011;9030;50.792;8.320;2023-05-16T04:07:35;2.30;;;1.10;;
17812;SDS011;9030;50.792;8.320;2023-05-16T04:10:03;1.70;;;0.80;;
17812;SDS011;9030;50.792;8.320;2023-05-16T04:12:30;1.30;;;0.70;;
17812;SDS011;9030;50.792;8.320;2023-05-16T04:14:57;1.10;;;0.80;;
17812;SDS011;9030;50.792;8.320;2023-05-16T04:17:25;3.77;;;0.70;;
17812;SDS011;9030;50.792;8.320;2023-05-16T04:19:52;0.87;;;0.63;;
17812;SDS011;9030;50.792;8.320;2023-05-16T04:22:19;4.67;;;1.13;;
17812;SDS011;9030;50.792;8.320;2023-05-16T04:24:46;1.43;;;1.00;;
17812;SDS011;9030;50.792;8.320;2023-05-16T04:27:13;3.07;;;0.90;;
17812;SDS011;9030;50.792;8.320;2023-05-16T04:29:40;1.47;;;0.83;;
17812;SDS011;9030;50.792;8.320;2023-05-16T04:32:06;3.20;;;0.80;;
17812;SDS011;9030;50.792;8.320;2023-05-16T04:34:35;1.70;;;0.87;;
17812;SDS011;9030;50.792;8.320;2023-05-16T04:37:02;2.27;;;1.43;;
17812;SDS011;9030;50.792;8.320;2023-05-16T04:39:31;4.13;;;2.50;;
17812;SDS011;9030;50.792;8.320;2023-05-16T04:41:58;2.97;;;1.30;;
17812;SDS011;9030;50.792;8.320;2023-05-16T04:44:25;1.10;;;0.97;;
17812;SDS011;9030;50.792;8.320;2023-05-16T04:46:52;2.83;;;1.60;;
17812;SDS011;9030;50.792;8.320;2023-05-16T04:49:19;2.60;;;1.60;;
17812;SDS011;9030;50.792;8.320;2023-05-16T04:51:47;2.20;;;1.73;;
17812;SDS011;9030;50.792;8.320;2023-05-16T04:54:14;2.70;;;1.70;;
17812;SDS011;9030;50.792;8.320;2023-05-16T04:56:41;2.47;;;1.77;;
17812;SDS011;9030;50.792;8.320;2023-05-16T04:59:08;2.77;;;1.60;;
17812;SDS011;9030;50.792;8.320;2023-05-16T05:01:34;2.30;;;1.70;;
17812;SDS011;9030;50.792;8.320;2023-05-16T05:04:01;3.80;;;1.67;;
17812;SDS011;9030;50.792;8.320;2023-05-16T05:06:28;2.90;;;1.90;;
17812;SDS011;9030;50.792;8.320;2023-05-16T05:08:56;2.30;;;1.30;;
17812;SDS011;9030;50.792;8.320;2023-05-16T05:11:23;1.47;;;0.93;;
17812;SDS011;9030;50.792;8.320;2023-05-16T05:13:51;1.10;;;0.60;;
17812;SDS011;9030;50.792;8.320;2023-05-16T05:16:18;0.37;;;0.20;;
17812;SDS011;9030;50.792;8.320;2023-05-16T05:18:44;4.37;;;0.70;;
17812;SDS011;9030;50.792;8.320;2023-05-16T05:21:11;1.73;;;0.40;;
17812;SDS011;9030;50.792;8.320;2023-05-16T05:23:38;1.97;;;0.30;;
17812;SDS011;9030;50.792;8.320;2023-05-16T05:26:06;2.03;;;0.30;;
17812;SDS011;9030;50.792;8.320;2023-05-16T05:28:33;1.20;;;0.30;;
17812;SDS011;9030;50.792;8.320;2023-05-16T05:31:01;0.67;;;0.60;;
17812;SDS011;9030;50.792;8.320;2023-05-16T05:33:29;2.30;;;0.30;;
17812;SDS011;9030;50.792;8.320;2023-05-16T05:35:56;3.97;;;0.40;;
17812;SDS011;9030;50.792;8.320;2023-05-16T05:38:23;4.50;;;0.40;;
17812;SDS011;9030;50.792;8.320;2023-05-16T05:40:49;1.90;;;0.23;;
17812;SDS011;9030;50.792;8.320;2023-05-16T05:43:18;2.57;;;0.63;;
17812;SDS011;9030;50.792;8.320;2023-05-16T05:45:45;2.67;;;1.00;;
17812;SDS011;9030;50.792;8.320;2023-05-16T05:48:11;2.47;;;0.93;;
17812;SDS011;9030;50.792;8.320;2023-05-16T05:50:38;0.50;;;0.43;;
17812;SDS011;9030;50.792;8.320;2023-05-16T05:53:05;3.33;;;0.90;;
17812;SDS011;9030;50.792;8.320;2023-05-16T05:55:32;0.60;;;0.60;;
17812;SDS011;9030;50.792;8.320;2023-05-16T05:57:58;3.60;;;0.97;;
17812;SDS011;9030;50.792;8.320;2023-05-16T06:00:27;2.73;;;0.83;;
17812;SDS011;9030;50.792;8.320;2023-05-16T06:02:54;3.03;;;1.20;;
17812;SDS011;9030;50.792;8.320;2023-05-16T06:05:20;5.60;;;1.00;;
17812;SDS011;9030;50.792;8.320;2023-05-16T06:07:47;4.53;;;1.10;;
17812;SDS011;9030;50.792;8.320;2023-05-16T06:10:14;5.40;;;1.57;;
17812;SDS011;9030;50.792;8.320;2023-05-16T06:12:41;2.83;;;1.10;;
17812;SDS011;9030;50.792;8.320;2023-05-16T06:15:08;2.70;;;1.00;;
17812;SDS011;9030;50.792;8.320;2023-05-16T06:17:37;2.63;;;1.20;;
17812;SDS011;9030;50.792;8.320;2023-05-16T06:20:04;3.20;;;1.20;;
17812;SDS011;9030;50.792;8.320;2023-05-16T06:22:31;5.10;;;1.53;;
17812;SDS011;9030;50.792;8.320;2023-05-16T06:24:58;6.90;;;1.47;;
17812;SDS011;9030;50.792;8.320;2023-05-16T06:27:25;2.13;;;1.20;;
17812;SDS011;9030;50.792;8.320;2023-05-16T06:29:52;8.73;;;1.57;;
17812;SDS011;9030;50.792;8.320;2023-05-16T06:32:19;5.27;;;1.67;;
17812;SDS011;9030;50.792;8.320;2023-05-16T06:34:47;4.70;;;1.40;;
17812;SDS011;9030;50.792;8.320;2023-05-16T06:37:14;5.33;;;1.10;;
17812;SDS011;9030;50.792;8.320;2023-05-16T06:39:41;5.60;;;1.50;;
17812;SDS011;9030;50.792;8.320;2023-05-16T06:42:08;4.30;;;1.17;;
17812;SDS011;9030;50.792;8.320;2023-05-16T06:44:35;2.53;;;1.40;;
17812;SDS011;9030;50.792;8.320;2023-05-16T06:47:02;7.93;;;2.00;;
17812;SDS011;9030;50.792;8.320;2023-05-16T06:49:29;4.60;;;1.60;;
17812;SDS011;9030;50.792;8.320;2023-05-16T06:51:57;4.77;;;2.03;;
17812;SDS011;9030;50.792;8.320;2023-05-16T06:54:24;5.07;;;1.70;;
17812;SDS011;9030;50.792;8.320;2023-05-16T06:56:50;5.03;;;1.63;;
17812;SDS011;9030;50.792;8.320;2023-05-16T06:59:17;4.03;;;1.23;;
17812;SDS011;9030;50.792;8.320;2023-05-16T07:01:44;6.73;;;2.10;;
17812;SDS011;9030;50.792;8.320;2023-05-16T07:04:10;3.90;;;1.60;;
17812;SDS011;9030;50.792;8.320;2023-05-16T07:06:37;6.50;;;2.30;;
17812;SDS011;9030;50.792;8.320;2023-05-16T07:09:05;4.27;;;1.43;;
17812;SDS011;9030;50.792;8.320;2023-05-16T07:11:32;4.30;;;2.30;;
17812;SDS011;9030;50.792;8.320;2023-05-16T07:13:59;6.47;;;2.13;;
17812;SDS011;9030;50.792;8.320;2023-05-16T07:16:25;7.50;;;2.47;;
17812;SDS011;9030;50.792;8.320;2023-05-16T07:18:52;7.17;;;1.67;;
17812;SDS011;9030;50.792;8.320;2023-05-16T07:21:19;9.10;;;2.33;;
17812;SDS011;9030;50.792;8.320;2023-05-16T07:23:46;12.27;;;3.77;;
17812;SDS011;9030;50.792;8.320;2023-05-16T07:26:14;11.23;;;2.90;;
17812;SDS011;9030;50.792;8.320;2023-05-16T07:28:41;17.77;;;4.47;;
17812;SDS011;9030;50.792;8.320;2023-05-16T07:31:08;13.63;;;4.13;;
17812;SDS011;9030;50.792;8.320;2023-05-16T07:33:35;10.87;;;3.13;;
17812;SDS011;9030;50.792;8.320;2023-05-16T07:36:01;15.80;;;3.90;;
17812;SDS011;9030;50.792;8.320;2023-05-16T07:38:28;20.80;;;4.60;;
17812;SDS011;9030;50.792;8.320;2023-05-16T07:40:55;17.27;;;4.47;;
17812;SDS011;9030;50.792;8.320;2023-05-16T07:43:23;16.67;;;4.23;;
17812;SDS011;9030;50.792;8.320;2023-05-16T07:45:50;16.57;;;3.77;;
17812;SDS011;9030;50.792;8.320;2023-05-16T07:48:17;14.73;;;3.07;;
17812;SDS011;9030;50.792;8.320;2023-05-16T07:50:44;10.87;;;3.10;;
17812;SDS011;9030;50.792;8.320;2023-05-16T07:53:10;14.00;;;3.40;;
17812;SDS011;9030;50.792;8.320;2023-05-16T07:55:37;12.47;;;2.70;;
17812;SDS011;9030;50.792;8.320;2023-05-16T07:58:04;9.37;;;2.63;;
17812;SDS011;9030;50.792;8.320;2023-05-16T08:00:32;19.63;;;3.57;;
17812;SDS011;9030;50.792;8.320;2023-05-16T08:02:59;13.97;;;3.33;;
17812;SDS011;9030;50.792;8.320;2023-05-16T08:05:26;14.93;;;3.97;;
17812;SDS011;9030;50.792;8.320;2023-05-16T08:07:53;9.00;;;2.47;;
17812;SDS011;9030;50.792;8.320;2023-05-16T08:10:20;20.03;;;3.83;;
17812;SDS011;9030;50.792;8.320;2023-05-16T08:12:48;11.37;;;2.93;;
17812;SDS011;9030;50.792;8.320;2023-05-16T08:15:15;11.57;;;2.47;;
17812;SDS011;9030;50.792;8.320;2023-05-16T08:17:43;20.70;;;3.87;;
17812;SDS011;9030;50.792;8.320;2023-05-16T08:20:10;13.07;;;2.87;;
17812;SDS011;9030;50.792;8.320;2023-05-16T08:22:38;9.60;;;2.20;;
17812;SDS011;9030;50.792;8.320;2023-05-16T08:25:05;15.53;;;2.73;;
17812;SDS011;9030;50.792;8.320;2023-05-16T08:27:33;15.50;;;2.90;;
17812;SDS011;9030;50.792;8.320;2023-05-16T08:30:00;13.60;;;2.57;;
17812;SDS011;9030;50.792;8.320;2023-05-16T08:32:27;18.47;;;3.00;;
17812;SDS011;9030;50.792;8.320;2023-05-16T08:34:55;13.97;;;3.00;;
17812;SDS011;9030;50.792;8.320;2023-05-16T08:37:21;18.03;;;2.90;;
17812;SDS011;9030;50.792;8.320;2023-05-16T08:39:48;14.30;;;2.43;;
17812;SDS011;9030;50.792;8.320;2023-05-16T08:42:15;12.90;;;2.70;;
17812;SDS011;9030;50.792;8.320;2023-05-16T08:44:42;14.60;;;3.23;;
17812;SDS011;9030;50.792;8.320;2023-05-16T08:47:10;18.40;;;3.43;;
17812;SDS011;9030;50.792;8.320;2023-05-16T08:49:38;11.13;;;2.83;;
17812;SDS011;9030;50.792;8.320;2023-05-16T08:52:08;14.90;;;3.10;;
17812;SDS011;9030;50.792;8.320;2023-05-16T08:54:36;14.20;;;2.40;;
17812;SDS011;9030;50.792;8.320;2023-05-16T08:57:02;18.40;;;2.13;;
17812;SDS011;9030;50.792;8.320;2023-05-16T08:59:31;12.13;;;1.63;;
17812;SDS011;9030;50.792;8.320;2023-05-16T09:01:58;20.43;;;2.70;;
17812;SDS011;9030;50.792;8.320;2023-05-16T09:04:24;11.60;;;2.97;;
17812;SDS011;9030;50.792;8.320;2023-05-16T09:06:51;11.17;;;2.10;;
17812;SDS011;9030;50.792;8.320;2023-05-16T09:09:20;13.73;;;2.35;;
17812;SDS011;9030;50.792;8.320;2023-05-16T09:11:46;14.10;;;5.57;;
17812;SDS011;9030;50.792;8.320;2023-05-16T09:14:13;15.52;;;6.30;;
17812;SDS011;9030;50.792;8.320;2023-05-16T09:16:40;13.88;;;4.15;;
17812;SDS011;9030;50.792;8.320;2023-05-16T09:19:11;12.45;;;2.85;;
17812;SDS011;9030;50.792;8.320;2023-05-16T09:21:38;11.32;;;2.15;;
17812;SDS011;9030;50.792;8.320;2023-05-16T09:24:06;9.32;;;2.05;;
17812;SDS011;9030;50.792;8.320;2023-05-16T09:26:36;10.70;;;2.47;;
17812;SDS011;9030;50.792;8.320;2023-05-16T09:29:08;10.38;;;1.73;;
17812;SDS011;9030;50.792;8.320;2023-05-16T09:31:40;5.93;;;1.67;;
17812;SDS011;9030;50.792;8.320;2023-05-16T09:34:07;11.43;;;1.80;;
17812;SDS011;9030;50.792;8.320;2023-05-16T09:36:35;14.37;;;2.03;;
17812;SDS011;9030;50.792;8.320;2023-05-16T09:39:02;8.10;;;2.57;;
17812;SDS011;9030;50.792;8.320;2023-05-16T09:41:31;10.98;;;2.58;;
17812;SDS011;9030;50.792;8.320;2023-05-16T09:44:00;13.32;;;3.22;;
17812;SDS011;9030;50.792;8.320;2023-05-16T09:46:29;11.98;;;2.47;;
17812;SDS011;9030;50.792;8.320;2023-05-16T09:48:56;12.90;;;2.22;;
17812;SDS011;9030;50.792;8.320;2023-05-16T09:51:23;11.65;;;1.65;;
17812;SDS011;9030;50.792;8.320;2023-05-16T09:53:49;15.55;;;2.50;;
17812;SDS011;9030;50.792;8.320;2023-05-16T09:56:17;8.52;;;2.08;;
17812;SDS011;9030;50.792;8.320;2023-05-16T09:58:43;10.55;;;2.00;;
17812;SDS011;9030;50.792;8.320;2023-05-16T10:01:12;8.00;;;2.25;;
17812;SDS011;9030;50.792;8.320;2023-05-16T10:03:40;10.52;;;1.95;;
17812;SDS011;9030;50.792;8.320;2023-05-16T10:06:08;11.40;;;2.17;;
17812;SDS011;9030;50.792;8.320;2023-05-16T10:08:37;11.03;;;2.53;;
17812;SDS011;9030;50.792;8.320;2023-05-16T10:11:06;11.65;;;2.30;;
17812;SDS011;9030;50.792;8.320;2023-05-16T10:13:34;11.18;;;2.38;;
17812;SDS011;9030;50.792;8.320;2023-05-16T10:16:05;11.52;;;1.95;;
17812;SDS011;9030;50.792;8.320;2023-05-16T10:18:34;10.32;;;2.42;;
17812;SDS011;9030;50.792;8.320;2023-05-16T10:21:03;9.15;;;2.05;;
17812;SDS011;9030;50.792;8.320;2023-05-16T10:23:31;8.93;;;1.70;;
17812;SDS011;9030;50.792;8.320;2023-05-16T10:26:00;10.23;;;2.00;;
17812;SDS011;9030;50.792;8.320;2023-05-16T10:28:28;13.70;;;1.75;;
17812;SDS011;9030;50.792;8.320;2023-05-16T10:30:55;10.90;;;1.80;;
17812;SDS011;9030;50.792;8.320;2023-05-16T10:33:22;9.25;;;1.90;;
17812;SDS011;9030;50.792;8.320;2023-05-16T10:35:51;8.23;;;2.03;;
17812;SDS011;9030;50.792;8.320;2023-05-16T10:38:18;6.53;;;1.67;;
17812;SDS011;9030;50.792;8.320;2023-05-16T10:40:48;11.27;;;2.00;;
17812;SDS011;9030;50.792;8.320;2023-05-16T10:43:22;11.70;;;1.70;;
17812;SDS011;9030;50.792;8.320;2023-05-16T10:45:53;9.55;;;2.03;;
17812;SDS011;9030;50.792;8.320;2023-05-16T10:48:27;9.13;;;1.90;;
17812;SDS011;9030;50.792;8.320;2023-05-16T10:50:56;9.65;;;2.03;;
17812;SDS011;9030;50.792;8.320;2023-05-16T10:53:28;16.42;;;2.30;;
17812;SDS011;9030;50.792;8.320;2023-05-16T10:56:06;5.72;;;1.40;;
17812;SDS011;9030;50.792;8.320;2023-05-16T10:58:40;14.25;;;1.77;;
17812;SDS011;9030;50.792;8.320;2023-05-16T11:01:15;12.52;;;2.25;;
17812;SDS011;9030;50.792;8.320;2023-05-16T11:04:01;11.35;;;1.98;;
17812;SDS011;9030;50.792;8.320;2023-05-16T11:06:34;9.15;;;1.80;;
17812;SDS011;9030;50.792;8.320;2023-05-16T11:09:16;7.45;;;1.63;;
17812;SDS011;9030;50.792;8.320;2023-05-16T11:11:52;19.15;;;3.25;;
17812;SDS011;9030;50.792;8.320;2023-05-16T11:14:20;11.90;;;1.98;;
17812;SDS011;9030;50.792;8.320;2023-05-16T11:16:49;13.70;;;2.42;;
17812;SDS011;9030;50.792;8.320;2023-05-16T11:22:10;7.07;;;1.75;;
17812;SDS011;9030;50.792;8.320;2023-05-16T11:24:57;5.82;;;1.20;;
17812;SDS011;9030;50.792;8.320;2023-05-16T11:27:26;13.18;;;1.85;;
17812;SDS011;9030;50.792;8.320;2023-05-16T11:29:57;14.57;;;3.00;;
17812;SDS011;9030;50.792;8.320;2023-05-16T11:32:25;9.70;;;1.83;;
17812;SDS011;9030;50.792;8.320;2023-05-16T11:34:52;7.95;;;1.60;;
17812;SDS011;9030;50.792;8.320;2023-05-16T11:37:20;10.45;;;2.05;;
17812;SDS011;9030;50.792;8.320;2023-05-16T11:39:47;9.27;;;1.85;;
17812;SDS011;9030;50.792;8.320;2023-05-16T11:42:14;10.27;;;1.60;;
17812;SDS011;9030;50.792;8.320;2023-05-16T11:44:42;10.68;;;1.50;;
17812;SDS011;9030;50.792;8.320;2023-05-16T11:47:09;6.85;;;1.42;;
17812;SDS011;9030;50.792;8.320;2023-05-16T11:49:36;5.97;;;1.88;;
17812;SDS011;9030;50.792;8.320;2023-05-16T11:52:03;8.52;;;1.25;;
17812;SDS011;9030;50.792;8.320;2023-05-16T11:54:31;9.32;;;2.10;;
17812;SDS011;9030;50.792;8.320;2023-05-16T11:57:00;8.63;;;1.77;;
17812;SDS011;9030;50.792;8.320;2023-05-16T11:59:27;6.00;;;1.05;;
17812;SDS011;9030;50.792;8.320;2023-05-16T12:01:55;4.80;;;1.10;;
17812;SDS011;9030;50.792;8.320;2023-05-16T12:04:22;6.65;;;1.20;;
17812;SDS011;9030;50.792;8.320;2023-05-16T12:06:58;6.35;;;1.38;;
17812;SDS011;9030;50.792;8.320;2023-05-16T12:09:27;6.03;;;1.20;;
17812;SDS011;9030;50.792;8.320;2023-05-16T12:11:55;8.45;;;1.42;;
17812;SDS011;9030;50.792;8.320;2023-05-16T12:14:22;7.05;;;1.48;;
17812;SDS011;9030;50.792;8.320;2023-05-16T12:16:50;9.93;;;1.50;;
17812;SDS011;9030;50.792;8.320;2023-05-16T12:19:18;7.15;;;1.10;;
17812;SDS011;9030;50.792;8.320;2023-05-16T12:21:46;10.27;;;1.88;;
17812;SDS011;9030;50.792;8.320;2023-05-16T12:24:12;6.45;;;1.60;;
17812;SDS011;9030;50.792;8.320;2023-05-16T12:26:40;7.72;;;1.63;;
17812;SDS011;9030;50.792;8.320;2023-05-16T12:29:10;9.00;;;1.85;;
17812;SDS011;9030;50.792;8.320;2023-05-16T12:31:37;9.85;;;1.60;;
17812;SDS011;9030;50.792;8.320;2023-05-16T12:34:15;25.75;;;19.38;;
17812;SDS011;9030;50.792;8.320;2023-05-16T12:36:44;6.95;;;1.80;;
17812;SDS011;9030;50.792;8.320;2023-05-16T12:39:15;8.68;;;2.38;;
17812;SDS011;9030;50.792;8.320;2023-05-16T12:41:42;11.15;;;1.40;;
17812;SDS011;9030;50.792;8.320;2023-05-16T12:44:14;9.93;;;1.75;;
17812;SDS011;9030;50.792;8.320;2023-05-16T12:46:43;5.30;;;1.17;;
17812;SDS011;9030;50.792;8.320;2023-05-16T12:49:12;7.53;;;1.40;;
17812;SDS011;9030;50.792;8.320;2023-05-16T12:51:39;6.43;;;1.58;;
17812;SDS011;9030;50.792;8.320;2023-05-16T12:54:06;10.68;;;1.55;;
17812;SDS011;9030;50.792;8.320;2023-05-16T12:56:35;9.70;;;1.88;;
17812;SDS011;9030;50.792;8.320;2023-05-16T12:59:02;7.47;;;1.45;;
17812;SDS011;9030;50.792;8.320;2023-05-16T13:01:30;5.75;;;1.30;;
17812;SDS011;9030;50.792;8.320;2023-05-16T13:03:57;9.85;;;1.38;;
17812;SDS011;9030;50.792;8.320;2023-05-16T13:06:24;7.40;;;1.52;;
17812;SDS011;9030;50.792;8.320;2023-05-16T13:08:52;10.73;;;1.52;;
17812;SDS011;9030;50.792;8.320;2023-05-16T13:11:19;8.45;;;1.92;;
17812;SDS011;9030;50.792;8.320;2023-05-16T13:13:45;12.35;;;2.17;;
17812;SDS011;9030;50.792;8.320;2023-05-16T13:16:12;8.90;;;1.50;;
17812;SDS011;9030;50.792;8.320;2023-05-16T13:18:40;6.22;;;1.15;;
17812;SDS011;9030;50.792;8.320;2023-05-16T13:21:07;6.72;;;1.23;;
17812;SDS011;9030;50.792;8.320;2023-05-16T13:23:34;4.82;;;1.17;;
17812;SDS011;9030;50.792;8.320;2023-05-16T13:26:01;6.78;;;1.58;;
17812;SDS011;9030;50.792;8.320;2023-05-16T13:28:30;4.22;;;1.10;;
17812;SDS011;9030;50.792;8.320;2023-05-16T13:30:57;10.57;;;1.60;;
17812;SDS011;9030;50.792;8.320;2023-05-16T13:33:24;4.85;;;1.30;;
17812;SDS011;9030;50.792;8.320;2023-05-16T13:35:52;10.82;;;2.03;;
17812;SDS011;9030;50.792;8.320;2023-05-16T13:38:20;6.00;;;1.27;;
17812;SDS011;9030;50.792;8.320;2023-05-16T13:40:47;8.55;;;1.83;;
17812;SDS011;9030;50.792;8.320;2023-05-16T13:43:14;7.20;;;1.50;;
17812;SDS011;9030;50.792;8.320;2023-05-16T13:45:41;7.82;;;1.58;;
17812;SDS011;9030;50.792;8.320;2023-05-16T13:48:08;6.00;;;1.08;;
17812;SDS011;9030;50.792;8.320;2023-05-16T13:50:35;6.65;;;0.98;;
17812;SDS011;9030;50.792;8.320;2023-05-16T13:53:04;7.25;;;1.52;;
17812;SDS011;9030;50.792;8.320;2023-05-16T13:55:32;6.45;;;1.10;;
17812;SDS011;9030;50.792;8.320;2023-05-16T13:57:59;6.00;;;1.50;;
17812;SDS011;9030;50.792;8.320;2023-05-16T14:00:26;6.35;;;1.80;;
17812;SDS011;9030;50.792;8.320;2023-05-16T14:02:53;9.13;;;1.30;;
17812;SDS011;9030;50.792;8.320;2023-05-16T14:05:20;7.60;;;1.23;;
17812;SDS011;9030;50.792;8.320;2023-05-16T14:07:47;7.85;;;1.80;;
17812;SDS011;9030;50.792;8.320;2023-05-16T14:10:15;9.50;;;1.88;;
17812;SDS011;9030;50.792;8.320;2023-05-16T14:12:42;5.63;;;1.25;;
17812;SDS011;9030;50.792;8.320;2023-05-16T14:15:09;5.25;;;1.10;;
17812;SDS011;9030;50.792;8.320;2023-05-16T14:17:36;5.47;;;1.08;;
17812;SDS011;9030;50.792;8.320;2023-05-16T14:20:03;13.25;;;1.60;;
17812;SDS011;9030;50.792;8.320;2023-05-16T14:22:32;5.78;;;1.38;;
17812;SDS011;9030;50.792;8.320;2023-05-16T14:24:59;6.38;;;1.30;;
17812;SDS011;9030;50.792;8.320;2023-05-16T14:27:27;5.70;;;1.42;;
17812;SDS011;9030;50.792;8.320;2023-05-16T14:29:54;4.88;;;1.27;;
17812;SDS011;9030;50.792;8.320;2023-05-16T14:32:22;6.75;;;1.50;;
17812;SDS011;9030;50.792;8.320;2023-05-16T14:34:49;7.18;;;1.15;;
17812;SDS011;9030;50.792;8.320;2023-05-16T14:37:16;4.53;;;1.30;;
17812;SDS011;9030;50.792;8.320;2023-05-16T14:39:46;6.57;;;1.25;;
17812;SDS011;9030;50.792;8.320;2023-05-16T14:42:14;4.30;;;1.08;;
17812;SDS011;9030;50.792;8.320;2023-05-16T14:44:42;4.95;;;1.40;;
17812;SDS011;9030;50.792;8.320;2023-05-16T14:47:09;7.93;;;1.38;;
17812;SDS011;9030;50.792;8.320;2023-05-16T14:49:36;5.53;;;1.45;;
17812;SDS011;9030;50.792;8.320;2023-05-16T14:52:03;8.10;;;1.92;;
17812;SDS011;9030;50.792;8.320;2023-05-16T14:54:30;7.78;;;1.48;;
17812;SDS011;9030;50.792;8.320;2023-05-16T14:56:57;5.07;;;1.30;;
17812;SDS011;9030;50.792;8.320;2023-05-16T14:59:24;5.45;;;1.15;;